Time;durP1;ratioP1;P1;durP2;ratioP2;P2;SDS_P1;SDS_P2;PMS_P1;PMS_P2;Temp;Humidity;BMP_temperature;BMP_pressure;BME280_temperature;BME280_humidity;BME280_pressure;Samples;Min_cycle;Max_cycle;Signal;HPM_P1;HPM_P2
2023/04/27 00:01:43;;;;;;;5.97;4.40;;;12.90;82.00;;;;;;5003355;28;20442;-89
2023/04/27 00:04:09;;;;;;;5.77;3.70;;;12.90;82.00;;;;;;5003304;28;20431;-88
2023/04/27 00:06:37;;;;;;;6.60;3.60;;;12.90;82.00;;;;;;4987840;28;20809;-89
2023/04/27 00:09:06;;;;;;;3.60;3.30;;;12.90;82.00;;;;;;5003045;28;20473;-89
2023/04/27 00:11:32;;;;;;;4.40;3.33;;;12.90;82.00;;;;;;4987189;28;20203;-89
2023/04/27 00:13:58;;;;;;;4.30;3.63;;;12.90;82.00;;;;;;4983647;28;20421;-88
2023/04/27 00:16:24;;;;;;;5.33;3.60;;;12.90;82.00;;;;;;4983369;28;20446;-88
2023/04/27 00:18:51;;;;;;;6.77;4.03;;;12.80;81.90;;;;;;4967458;28;20898;-89
2023/04/27 00:21:19;;;;;;;5.10;3.50;;;12.80;81.90;;;;;;4983448;28;20458;-88
2023/04/27 00:23:45;;;;;;;5.17;3.70;;;12.80;81.90;;;;;;4983689;28;20432;-89
2023/04/27 00:26:11;;;;;;;4.90;3.93;;;12.80;81.90;;;;;;4983554;28;20447;-88
2023/04/27 00:28:38;;;;;;;5.70;3.40;;;12.80;81.90;;;;;;4999327;28;20447;-89
2023/04/27 00:31:07;;;;;;;5.53;3.43;;;12.80;81.90;;;;;;4999498;28;20429;-89
2023/04/27 00:33:35;;;;;;;3.93;3.63;;;12.80;81.90;;;;;;4999280;28;20430;-88
2023/04/27 00:36:05;;;;;;;4.30;3.30;;;12.70;81.60;;;;;;4984057;28;20560;-89
2023/04/27 00:38:30;;;;;;;5.30;3.30;;;12.70;81.60;;;;;;4983059;28;20446;-89
2023/04/27 00:41:07;;;;;;;4.30;3.60;;;12.70;82.40;;;;;;4983203;28;20449;-88
2023/04/27 00:43:41;;;;;;;5.00;3.60;;;12.70;81.60;;;;;;4999900;28;20413;-88
2023/04/27 00:46:08;;;;;;;6.23;3.33;;;12.70;81.60;;;;;;4982980;28;20476;-88
2023/04/27 00:48:36;;;;;;;4.37;3.70;;;12.70;81.60;;;;;;4983128;28;20440;-88
2023/04/27 00:51:04;;;;;;;4.37;3.40;;;12.70;81.60;;;;;;4967198;28;20912;-89
2023/04/27 00:53:38;;;;;;;5.73;3.47;;;12.70;81.60;;;;;;4998889;28;20537;-88
2023/04/27 00:56:05;;;;;;;6.50;3.73;;;12.60;81.50;;;;;;4982801;28;20418;-88
2023/04/27 00:58:31;;;;;;;3.50;3.20;;;12.60;81.60;;;;;;4982772;28;20749;-88
2023/04/27 01:01:03;;;;;;;3.60;3.30;;;12.60;81.60;;;;;;4998930;28;20430;-88
2023/04/27 01:03:31;;;;;;;3.57;2.77;;;12.60;81.60;;;;;;4983000;28;20423;-89
2023/04/27 01:06:00;;;;;;;4.73;3.60;;;12.60;81.50;;;;;;5014736;28;20443;-88
2023/04/27 01:08:28;;;;;;;4.17;3.60;;;12.60;81.60;;;;;;4966739;28;20432;-89
2023/04/27 01:10:54;;;;;;;5.20;3.97;;;12.60;81.50;;;;;;4982439;28;20466;-88
2023/04/27 01:13:21;;;;;;;6.97;3.90;;;12.50;81.40;;;;;;4966824;28;20422;-89
2023/04/27 01:15:47;;;;;;;4.67;3.53;;;12.50;81.40;;;;;;4994939;28;20433;-89
2023/04/27 01:18:18;;;;;;;6.50;3.60;;;12.50;81.40;;;;;;4983605;28;20472;-89
2023/04/27 01:20:46;;;;;;;4.90;3.50;;;12.50;81.40;;;;;;5005084;28;20442;-88
2023/04/27 01:23:15;;;;;;;3.93;3.17;;;12.50;81.40;;;;;;5001800;28;20431;-89
2023/04/27 01:25:42;;;;;;;5.10;3.23;;;12.50;81.40;;;;;;5018185;28;20425;-89
2023/04/27 01:28:10;;;;;;;6.03;3.30;;;12.50;81.30;;;;;;5034580;28;20419;-89
2023/04/27 01:30:39;;;;;;;4.33;3.83;;;12.50;81.40;;;;;;5001531;28;20502;-89
2023/04/27 01:33:05;;;;;;;8.50;4.23;;;12.40;81.10;;;;;;5001618;28;20419;-89
2023/04/27 01:35:33;;;;;;;4.37;3.60;;;12.40;81.10;;;;;;4985811;28;20516;-89
2023/04/27 01:38:00;;;;;;;4.50;3.23;;;12.40;81.10;;;;;;5001837;28;20538;-88
2023/04/27 01:40:28;;;;;;;3.63;3.00;;;12.40;81.90;;;;;;4985644;28;20521;-89
2023/04/27 01:42:54;;;;;;;4.93;3.40;;;12.40;81.10;;;;;;5001790;28;20430;-89
2023/04/27 01:45:20;;;;;;;3.53;3.23;;;12.40;81.10;;;;;;5018270;28;20875;-89
2023/04/27 01:47:52;;;;;;;3.40;3.10;;;12.40;81.10;;;;;;5017958;28;20433;-88
2023/04/27 01:50:19;;;;;;;3.40;2.90;;;12.30;80.90;;;;;;5001423;28;21047;-89
2023/04/27 01:52:47;;;;;;;3.37;3.00;;;12.30;80.90;;;;;;5034437;28;20517;-89
2023/04/27 01:55:14;;;;;;;4.07;3.10;;;12.30;80.90;;;;;;4985542;28;20503;-89
2023/04/27 01:57:41;;;;;;;4.73;3.23;;;12.30;81.70;;;;;;4985516;28;20459;-89
2023/04/27 02:00:08;;;;;;;4.87;3.30;;;12.30;81.00;;;;;;5018083;28;20427;-88
2023/04/27 02:02:52;;;;;;;4.80;3.80;;;12.30;81.00;;;;;;4980828;28;20460;-89
2023/04/27 02:05:18;;;;;;;4.73;3.50;;;12.30;80.90;;;;;;4994615;28;20507;-89
2023/04/27 02:07:45;;;;;;;4.30;3.33;;;12.30;80.90;;;;;;4995142;28;20457;-89
2023/04/27 02:10:14;;;;;;;4.30;3.80;;;12.20;80.90;;;;;;4978554;28;20467;-88
2023/04/27 02:12:44;;;;;;;5.10;3.10;;;12.20;80.90;;;;;;4994940;28;20414;-89
2023/04/27 02:15:15;;;;;;;7.30;4.00;;;12.20;80.90;;;;;;4978699;28;20796;-89
2023/04/27 02:17:44;;;;;;;4.17;3.60;;;12.20;80.90;;;;;;4948155;28;20818;-89
2023/04/27 02:20:11;;;;;;;3.87;3.40;;;12.20;80.80;;;;;;4982493;28;20451;-88
2023/04/27 02:22:44;;;;;;;4.03;3.17;;;12.20;80.90;;;;;;4978257;28;20428;-89
2023/04/27 02:25:11;;;;;;;4.93;3.70;;;12.20;80.90;;;;;;4988974;28;20418;-88
2023/04/27 02:27:40;;;;;;;6.63;3.60;;;12.10;80.80;;;;;;5005080;28;20445;-89
2023/04/27 02:30:10;;;;;;;3.20;2.90;;;12.10;80.80;;;;;;5021365;28;20518;-89
2023/04/27 02:32:40;;;;;;;6.63;4.10;;;12.10;80.80;;;;;;5005967;28;20413;-88
2023/04/27 02:35:11;;;;;;;4.23;3.60;;;12.10;80.80;;;;;;4988985;28;20449;-89
2023/04/27 02:37:37;;;;;;;4.10;3.70;;;12.10;80.80;;;;;;5004726;28;20585;-89
2023/04/27 02:40:07;;;;;;;3.57;3.10;;;12.10;80.80;;;;;;4988664;28;20530;-89
2023/04/27 02:42:37;;;;;;;4.33;3.93;;;12.00;80.70;;;;;;5004844;28;20424;-89
2023/04/27 02:45:05;;;;;;;4.30;3.33;;;12.00;80.70;;;;;;4988575;28;20436;-89
2023/04/27 02:47:34;;;;;;;4.53;3.97;;;12.00;80.60;;;;;;4988495;28;20448;-89
2023/04/27 02:50:00;;;;;;;6.33;4.30;;;12.00;80.60;;;;;;5020761;28;20847;-89
2023/04/27 02:52:27;;;;;;;7.93;3.70;;;12.00;81.40;;;;;;4984266;28;20533;-88
2023/04/27 02:54:56;;;;;;;5.53;3.40;;;12.00;80.60;;;;;;5001415;28;20433;-89
2023/04/27 02:57:22;;;;;;;4.83;3.70;;;12.00;80.50;;;;;;4986099;28;20430;-89
2023/04/27 02:59:52;;;;;;;5.50;3.90;;;12.00;80.50;;;;;;5005027;28;20913;-89
2023/04/27 03:02:20;;;;;;;5.70;3.63;;;12.00;80.50;;;;;;5004209;28;20426;-88
2023/04/27 03:04:47;;;;;;;5.10;3.43;;;11.90;80.30;;;;;;5004445;28;20488;-88
2023/04/27 03:07:13;;;;;;;5.53;3.63;;;11.90;80.30;;;;;;5004320;28;20434;-89
2023/04/27 03:09:43;;;;;;;4.03;3.27;;;11.90;80.30;;;;;;5003748;28;20465;-88
2023/04/27 03:12:11;;;;;;;6.17;4.10;;;11.90;80.20;;;;;;5004221;28;20438;-88
2023/04/27 03:14:40;;;;;;;5.10;4.20;;;11.90;80.30;;;;;;5020536;28;20414;-89
2023/04/27 03:17:06;;;;;;;5.23;3.77;;;11.90;80.20;;;;;;5004259;28;20428;-88
2023/04/27 03:19:34;;;;;;;4.00;3.47;;;11.90;80.20;;;;;;5004004;28;20453;-89
2023/04/27 03:22:00;;;;;;;4.03;3.63;;;11.80;80.10;;;;;;5004131;28;20459;-89
2023/04/27 03:24:28;;;;;;;4.53;3.77;;;11.80;80.00;;;;;;5005151;28;20418;-89
2023/04/27 03:26:54;;;;;;;4.90;3.20;;;11.80;80.10;;;;;;5004121;28;20429;-89
2023/04/27 03:29:20;;;;;;;4.20;3.53;;;11.80;80.80;;;;;;5003546;28;20523;-89
2023/04/27 03:31:46;;;;;;;4.60;3.90;;;11.80;80.10;;;;;;4978937;28;20433;-88
2023/04/27 03:34:12;;;;;;;5.40;3.93;;;11.80;80.00;;;;;;5000782;28;20452;-88
2023/04/27 03:36:41;;;;;;;4.40;3.47;;;11.80;80.10;;;;;;4968512;28;20189;-88
2023/04/27 03:39:09;;;;;;;6.80;3.87;;;11.70;80.00;;;;;;4984791;28;20409;-88
2023/04/27 03:41:37;;;;;;;4.43;3.80;;;11.70;80.00;;;;;;4968822;28;20789;-89
2023/04/27 03:44:03;;;;;;;5.53;4.33;;;11.70;80.00;;;;;;4968456;28;20421;-89
2023/04/27 03:46:31;;;;;;;5.63;4.00;;;11.70;80.10;;;;;;5000322;28;20449;-88
2023/04/27 03:48:58;;;;;;;5.60;3.80;;;11.70;80.10;;;;;;4984109;28;20463;-89
2023/04/27 03:51:27;;;;;;;6.07;4.27;;;11.70;80.10;;;;;;4967977;28;20478;-89
2023/04/27 03:53:55;;;;;;;5.77;4.03;;;11.70;80.20;;;;;;5000542;28;20449;-89
2023/04/27 03:56:21;;;;;;;4.50;4.10;;;11.60;80.10;;;;;;4967928;28;20431;-88
2023/04/27 03:58:50;;;;;;;4.10;3.70;;;11.60;80.10;;;;;;4983982;28;20421;-89
2023/04/27 04:01:20;;;;;;;4.47;4.00;;;11.70;80.30;;;;;;4968698;28;20421;-89
2023/04/27 04:03:50;;;;;;;6.13;4.20;;;11.60;80.10;;;;;;4968135;28;20903;-89
2023/04/27 04:06:18;;;;;;;6.50;4.43;;;11.60;80.10;;;;;;4967955;28;20440;-88
2023/04/27 04:08:47;;;;;;;6.20;4.30;;;11.60;80.20;;;;;;4984480;28;20475;-89
2023/04/27 04:11:13;;;;;;;4.73;4.00;;;11.60;80.20;;;;;;4964451;28;20427;-89
2023/04/27 04:13:43;;;;;;;4.70;3.90;;;11.60;80.20;;;;;;4979953;28;20419;-89
2023/04/27 04:16:12;;;;;;;4.60;3.93;;;11.50;80.10;;;;;;4967493;28;20420;-89
2023/04/27 04:18:40;;;;;;;5.10;4.10;;;11.50;80.10;;;;;;4968221;28;20410;-88
2023/04/27 04:21:09;;;;;;;4.40;4.00;;;11.50;80.20;;;;;;4983334;28;20973;-88
2023/04/27 04:23:36;;;;;;;4.27;3.87;;;11.50;80.20;;;;;;4967596;28;20493;-89
2023/04/27 04:26:03;;;;;;;5.13;4.03;;;11.50;80.20;;;;;;5015815;28;20449;-88
2023/04/27 04:28:37;;;;;;;4.47;4.07;;;11.50;80.30;;;;;;4967849;28;20410;-89
2023/04/27 04:31:08;;;;;;;6.63;4.23;;;11.50;80.30;;;;;;4983399;28;20529;-88
2023/04/27 04:33:36;;;;;;;4.30;3.90;;;11.40;80.20;;;;;;4967404;28;20427;-89
2023/04/27 04:36:03;;;;;;;5.47;3.80;;;11.40;80.20;;;;;;4968162;28;20434;-88
2023/04/27 04:38:32;;;;;;;5.97;4.27;;;11.40;80.30;;;;;;5028871;28;20548;-87
2023/04/27 04:40:58;;;;;;;8.80;4.33;;;11.40;80.40;;;;;;4984125;28;20878;-87
2023/04/27 04:43:27;;;;;;;4.03;3.63;;;11.40;80.40;;;;;;4996165;28;20451;-88
2023/04/27 04:45:55;;;;;;;4.67;4.27;;;11.40;80.50;;;;;;4987133;28;20434;-89
2023/04/27 04:48:21;;;;;;;5.80;4.13;;;11.40;80.60;;;;;;5011845;28;20424;-88
2023/04/27 04:50:52;;;;;;;4.80;3.97;;;11.40;80.60;;;;;;4999024;28;20493;-88
2023/04/27 04:53:22;;;;;;;4.97;3.80;;;11.40;80.80;;;;;;5027826;28;20412;-88
2023/04/27 04:55:51;;;;;;;5.30;4.43;;;11.30;80.70;;;;;;4998531;28;20459;-87
2023/04/27 04:58:19;;;;;;;4.20;3.80;;;11.30;80.70;;;;;;5010978;28;20395;-88
2023/04/27 05:00:47;;;;;;;5.73;4.70;;;11.30;80.80;;;;;;5015072;28;20457;-88
2023/04/27 05:03:18;;;;;;;6.07;3.87;;;11.30;80.90;;;;;;5002623;28;20422;-88
2023/04/27 05:05:43;;;;;;;6.90;4.37;;;11.30;81.00;;;;;;5012729;28;20516;-87
2023/04/27 05:08:12;;;;;;;5.70;4.17;;;11.30;81.10;;;;;;4982863;28;20542;-88
2023/04/27 05:10:40;;;;;;;6.00;4.40;;;11.30;81.10;;;;;;4966164;28;20472;-88
2023/04/27 05:13:06;;;;;;;5.43;4.67;;;11.30;81.20;;;;;;4998577;28;20775;-87
2023/04/27 05:15:36;;;;;;;6.03;3.97;;;11.30;81.30;;;;;;4982411;28;20491;-88
2023/04/27 05:18:09;;;;;;;5.17;4.33;;;11.20;81.30;;;;;;5014984;28;20443;-88
2023/04/27 05:20:36;;;;;;;7.00;4.37;;;11.20;81.30;;;;;;4998353;28;20454;-88
2023/04/27 05:23:02;;;;;;;7.20;4.67;;;11.20;81.40;;;;;;4966297;28;20471;-88
2023/04/27 05:25:32;;;;;;;6.13;4.83;;;11.20;81.60;;;;;;4982533;28;20454;-87
2023/04/27 05:28:03;;;;;;;6.50;4.73;;;11.20;81.60;;;;;;4998337;28;20807;-88
2023/04/27 05:30:28;;;;;;;5.23;4.73;;;11.20;81.80;;;;;;4965855;28;20531;-87
2023/04/27 05:33:02;;;;;;;6.23;4.83;;;11.20;81.80;;;;;;5014623;28;20440;-88
2023/04/27 05:35:31;;;;;;;4.80;4.07;;;11.20;81.90;;;;;;4982092;28;20465;-87
2023/04/27 05:38:00;;;;;;;5.97;4.90;;;11.20;81.90;;;;;;5014632;28;20405;-88
2023/04/27 05:40:26;;;;;;;10.07;4.70;;;11.20;82.00;;;;;;4966013;28;20772;-87
2023/04/27 05:42:55;;;;;;;11.67;5.23;;;11.20;82.10;;;;;;5014516;28;20423;-88
2023/04/27 05:45:21;;;;;;;7.63;5.73;;;11.20;82.20;;;;;;4998456;28;20450;-87
2023/04/27 05:47:49;;;;;;;7.07;4.70;;;11.20;82.30;;;;;;4998276;28;20770;-87
2023/04/27 05:50:17;;;;;;;5.83;5.23;;;11.20;82.40;;;;;;4997752;28;20836;-87
2023/04/27 05:52:45;;;;;;;8.47;5.80;;;11.10;82.60;;;;;;4987776;28;20600;-87
2023/04/27 05:55:13;;;;;;;7.77;5.50;;;11.20;82.60;;;;;;4988390;28;20425;-87
2023/04/27 05:57:40;;;;;;;6.43;5.20;;;11.10;82.50;;;;;;5020901;28;20505;-87
2023/04/27 06:00:11;;;;;;;6.83;5.30;;;11.10;82.60;;;;;;5004640;28;20491;-88
2023/04/27 06:02:44;;;;;;;8.00;5.20;;;11.10;82.70;;;;;;4985207;28;20423;-87
2023/04/27 06:05:15;;;;;;;6.07;4.73;;;11.10;82.80;;;;;;4988174;28;20447;-88
2023/04/27 06:07:44;;;;;;;5.67;4.53;;;11.10;82.90;;;;;;4984040;28;20546;-87
2023/04/27 06:10:12;;;;;;;8.60;4.83;;;11.10;83.00;;;;;;5004437;28;20542;-86
2023/04/27 06:12:40;;;;;;;5.33;4.70;;;11.10;83.00;;;;;;5012912;28;20442;-87
2023/04/27 06:15:08;;;;;;;8.83;5.60;;;11.10;83.10;;;;;;5004129;28;20540;-87
2023/04/27 06:17:35;;;;;;;4.97;4.20;;;11.10;83.10;;;;;;4982650;28;20549;-87
2023/04/27 06:20:07;;;;;;;10.03;5.53;;;11.10;83.20;;;;;;4990852;28;20449;-87
2023/04/27 06:22:33;;;;;;;6.73;5.10;;;11.10;83.30;;;;;;5023866;28;20472;-90
2023/04/27 06:25:02;;;;;;;7.37;4.77;;;11.10;83.40;;;;;;5024170;28;20469;-89
2023/04/27 06:27:35;;;;;;;6.20;4.90;;;11.10;83.40;;;;;;5007888;28;20435;-86
2023/04/27 06:30:04;;;;;;;6.90;5.20;;;11.10;83.40;;;;;;4997688;28;20452;-85
2023/04/27 06:32:31;;;;;;;5.97;4.47;;;11.10;83.50;;;;;;5003992;28;20414;-86
2023/04/27 06:35:04;;;;;;;6.13;4.47;;;11.10;83.50;;;;;;5004472;28;20772;-88
2023/04/27 06:37:30;;;;;;;5.60;4.57;;;11.10;83.50;;;;;;4987905;28;20424;-88
2023/04/27 06:40:03;;;;;;;5.77;4.57;;;11.10;83.50;;;;;;5004125;28;20422;-86
2023/04/27 06:42:33;;;;;;;9.10;4.53;;;11.10;83.50;;;;;;5020545;28;20474;-86
2023/04/27 06:45:03;;;;;;;8.60;5.00;;;11.10;83.60;;;;;;4988246;28;20806;-85
2023/04/27 06:47:29;;;;;;;7.10;3.90;;;11.10;83.60;;;;;;5004019;28;20425;-86
2023/04/27 06:49:57;;;;;;;6.67;5.17;;;11.10;83.60;;;;;;5003554;28;20826;-83
2023/04/27 06:52:30;;;;;;;5.70;4.17;;;11.10;83.60;;;;;;4987305;28;20437;-84
2023/04/27 06:54:56;;;;;;;7.30;5.30;;;11.10;83.60;;;;;;5001165;28;20459;-84
2023/04/27 06:57:22;;;;;;;10.43;4.90;;;11.10;83.60;;;;;;4987517;28;20757;-83
2023/04/27 06:59:48;;;;;;;8.10;5.47;;;11.10;83.60;;;;;;5004088;28;20518;-86
2023/04/27 07:02:13;;;;;;;4.87;4.40;;;11.20;83.70;;;;;;5003844;28;20509;-84
2023/04/27 07:04:42;;;;;;;8.33;4.60;;;11.20;83.70;;;;;;4999788;28;20200;-83
2023/04/27 07:07:12;;;;;;;7.30;4.60;;;11.20;83.60;;;;;;5017951;28;20177;-83
2023/04/27 07:09:45;;;;;;;4.70;4.20;;;11.20;83.60;;;;;;5000667;28;20467;-84
2023/04/27 07:12:11;;;;;;;5.90;4.73;;;11.20;83.60;;;;;;5017514;28;20206;-82
2023/04/27 07:14:40;;;;;;;5.80;4.40;;;11.20;83.50;;;;;;5002198;28;20430;-87
2023/04/27 07:17:10;;;;;;;5.27;4.40;;;11.20;83.60;;;;;;5003686;28;20452;-84
2023/04/27 07:19:36;;;;;;;4.97;4.47;;;11.20;83.60;;;;;;5003595;28;20445;-85
2023/04/27 07:22:02;;;;;;;7.43;4.23;;;11.20;83.50;;;;;;5036268;28;20453;-85
2023/04/27 07:24:31;;;;;;;5.37;4.13;;;11.20;83.50;;;;;;5003987;28;20437;-85
2023/04/27 07:27:02;;;;;;;4.80;3.73;;;11.30;83.50;;;;;;5036496;28;20448;-84
2023/04/27 07:29:31;;;;;;;4.60;3.60;;;11.30;83.50;;;;;;4987247;28;20457;-85
2023/04/27 07:31:57;;;;;;;5.47;4.30;;;11.30;83.50;;;;;;5019875;28;20443;-85
2023/04/27 07:34:25;;;;;;;6.20;4.47;;;11.30;83.40;;;;;;4987403;28;20430;-84
2023/04/27 07:36:54;;;;;;;7.60;3.70;;;11.30;83.40;;;;;;4987804;28;20447;-84
2023/04/27 07:39:22;;;;;;;4.60;3.60;;;11.30;83.40;;;;;;5003300;28;20415;-85
2023/04/27 07:41:51;;;;;;;7.87;4.60;;;11.30;83.40;;;;;;5003274;28;20268;-85
2023/04/27 07:44:20;;;;;;;6.97;4.47;;;11.40;83.50;;;;;;4987503;28;20449;-85
2023/04/27 07:46:47;;;;;;;6.93;3.63;;;11.40;83.50;;;;;;5035943;28;20487;-85
2023/04/27 07:49:14;;;;;;;3.70;3.40;;;11.40;83.40;;;;;;5003054;28;20509;-83
2023/04/27 07:51:41;;;;;;;5.47;4.17;;;11.40;83.40;;;;;;5019397;28;20414;-83
2023/04/27 07:54:12;;;;;;;5.40;4.00;;;11.40;83.40;;;;;;5003004;28;20456;-85
2023/04/27 07:56:42;;;;;;;5.60;3.13;;;11.40;83.30;;;;;;5003085;28;20430;-85
2023/04/27 07:59:08;;;;;;;8.30;4.33;;;11.40;83.30;;;;;;5002945;28;20519;-85
2023/04/27 08:01:38;;;;;;;5.07;3.47;;;11.40;83.20;;;;;;5003316;28;20848;-86
2023/04/27 08:04:07;;;;;;;5.97;3.53;;;11.40;83.20;;;;;;4986721;28;20444;-85
2023/04/27 08:06:35;;;;;;;6.20;4.30;;;11.50;83.40;;;;;;4983053;28;20428;-82
2023/04/27 08:09:08;;;;;;;5.63;3.80;;;11.50;83.40;;;;;;5000913;28;20468;-84
2023/04/27 08:11:34;;;;;;;5.50;3.90;;;11.50;83.30;;;;;;5002711;28;20502;-83
2023/04/27 08:14:12;;;;;;;4.93;4.37;;;11.50;83.20;;;;;;5002469;28;20514;-83
2023/04/27 08:16:42;;;;;;;7.53;4.90;;;11.50;83.30;;;;;;5018447;28;20412;-83
2023/04/27 08:19:11;;;;;;;5.23;3.73;;;11.50;83.30;;;;;;5002681;28;20743;-82
2023/04/27 08:21:39;;;;;;;6.43;3.67;;;11.50;84.10;;;;;;5002840;28;20453;-82
2023/04/27 08:24:06;;;;;;;4.07;3.37;;;11.60;83.40;;;;;;5002378;28;20803;-82
2023/04/27 08:26:36;;;;;;;8.07;4.37;;;11.60;83.50;;;;;;5022031;28;20499;-83
2023/04/27 08:29:02;;;;;;;5.93;3.90;;;11.60;83.10;;;;;;5018178;28;20426;-82
2023/04/27 08:31:33;;;;;;;5.40;3.60;;;11.60;83.00;;;;;;5023105;28;20517;-83
2023/04/27 08:33:59;;;;;;;4.63;3.50;;;11.60;83.00;;;;;;5029134;28;20421;-84
2023/04/27 08:36:26;;;;;;;6.40;4.00;;;11.70;83.30;;;;;;5002581;28;20458;-84
2023/04/27 08:38:58;;;;;;;4.20;3.90;;;11.70;83.20;;;;;;5035737;28;20417;-84
2023/04/27 08:41:23;;;;;;;4.30;3.43;;;11.70;83.20;;;;;;4985796;28;20438;-83
2023/04/27 08:43:54;;;;;;;4.80;3.97;;;11.70;83.20;;;;;;4998180;28;20441;-82
2023/04/27 08:46:26;;;;;;;5.13;3.80;;;11.70;83.00;;;;;;5027450;28;20417;-82
2023/04/27 08:48:55;;;;;;;5.17;3.70;;;11.80;83.10;;;;;;5004967;28;20760;-83
2023/04/27 08:51:27;;;;;;;5.70;3.90;;;11.80;83.10;;;;;;4998646;28;20428;-83
2023/04/27 08:53:56;;;;;;;5.33;3.40;;;11.80;83.00;;;;;;5016185;28;20579;-83
2023/04/27 08:56:27;;;;;;;5.23;3.30;;;11.80;82.70;;;;;;4998453;28;20428;-84
2023/04/27 08:59:00;;;;;;;4.10;3.60;;;11.90;82.90;;;;;;4998298;28;20453;-84
2023/04/27 09:01:31;;;;;;;4.10;2.80;;;11.90;83.00;;;;;;4998884;28;20409;-84
2023/04/27 09:04:00;;;;;;;5.20;3.20;;;11.90;83.00;;;;;;5005868;28;20798;-83
2023/04/27 09:06:37;;;;;;;4.27;3.50;;;11.90;83.10;;;;;;5035131;28;20826;-84
2023/04/27 09:09:06;;;;;;;4.00;3.00;;;12.00;83.20;;;;;;5021333;28;20848;-84
2023/04/27 09:11:38;;;;;;;3.93;3.53;;;12.00;83.20;;;;;;4998308;28;20779;-83
2023/04/27 09:14:23;;;;;;;4.90;3.40;;;12.00;83.10;;;;;;4998553;28;20443;-85
2023/04/27 09:16:57;;;;;;;5.60;3.30;;;12.10;83.30;;;;;;4982114;28;20469;-84
2023/04/27 09:19:29;;;;;;;6.03;3.00;;;12.10;83.20;;;;;;5014432;28;20436;-85
2023/04/27 09:22:13;;;;;;;4.40;2.90;;;12.10;83.10;;;;;;4998226;28;20427;-84
2023/04/27 09:24:50;;;;;;;5.57;2.90;;;12.20;83.10;;;;;;4998113;28;20457;-82
2023/04/27 09:27:20;;;;;;;5.37;3.40;;;12.20;83.00;;;;;;4997751;28;20452;-83
2023/04/27 09:29:51;;;;;;;5.53;3.43;;;12.20;83.70;;;;;;5010904;28;20552;-84
2023/04/27 09:32:19;;;;;;;5.13;4.03;;;12.30;83.00;;;;;;5004093;28;20490;-83
2023/04/27 09:34:47;;;;;;;5.50;3.50;;;12.30;82.90;;;;;;5034746;28;20430;-83
2023/04/27 09:37:14;;;;;;;4.53;3.40;;;12.30;82.80;;;;;;5034157;28;20492;-84
2023/04/27 09:39:43;;;;;;;6.27;3.50;;;12.40;82.80;;;;;;5017577;28;20433;-84
2023/04/27 09:42:11;;;;;;;5.70;3.80;;;12.40;82.60;;;;;;5001431;28;20460;-84
2023/04/27 09:44:37;;;;;;;4.50;3.60;;;12.40;82.50;;;;;;5017791;28;20420;-86
2023/04/27 09:47:09;;;;;;;3.73;3.20;;;12.50;82.50;;;;;;5016892;28;20541;-84
2023/04/27 09:49:35;;;;;;;3.17;2.87;;;12.50;82.40;;;;;;5017537;28;20646;-89
2023/04/27 09:52:03;;;;;;;4.63;2.80;;;12.50;83.10;;;;;;5017419;28;20445;-86
2023/04/27 09:54:32;;;;;;;3.70;3.03;;;12.60;82.50;;;;;;4985004;28;20901;-84
2023/04/27 09:57:25;;;;;;;4.20;3.27;;;12.60;82.40;;;;;;5000693;28;20449;-83
2023/04/27 10:00:35;;;;;;;4.40;2.90;;;12.60;82.20;;;;;;5001568;28;20408;-82
2023/04/27 10:03:12;;;;;;;5.00;3.43;;;12.70;82.10;;;;;;4995839;28;20450;-84
2023/04/27 10:05:47;;;;;;;5.40;2.70;;;12.70;82.00;;;;;;5017368;28;20424;-85
2023/04/27 10:08:14;;;;;;;4.47;3.10;;;12.80;81.90;;;;;;5017325;28;20447;-84
2023/04/27 10:10:52;;;;;;;2.93;2.70;;;12.80;81.70;;;;;;5017095;28;20513;-85
2023/04/27 10:13:25;;;;;;;5.33;3.37;;;12.80;81.30;;;;;;5001025;28;20854;-84
2023/04/27 10:15:55;;;;;;;5.07;3.00;;;12.90;81.30;;;;;;5000816;28;20405;-85
2023/04/27 10:18:54;;;;;;;2.90;2.70;;;12.90;81.10;;;;;;5000963;28;20455;-84
2023/04/27 10:21:22;;;;;;;3.67;3.37;;;12.90;81.20;;;;;;5033523;28;20420;-85
2023/04/27 10:23:50;;;;;;;4.90;3.30;;;12.90;81.00;;;;;;5016984;28;20766;-85
2023/04/27 10:26:23;;;;;;;6.70;3.00;;;13.00;81.00;;;;;;5017339;28;20445;-85
2023/04/27 10:29:08;;;;;;;3.60;3.30;;;13.00;80.80;;;;;;5017154;28;20442;-82
2023/04/27 10:31:34;;;;;;;4.60;3.47;;;13.00;80.30;;;;;;5017200;28;20822;-83
2023/04/27 10:34:07;;;;;;;3.47;3.17;;;13.10;80.40;;;;;;5000646;28;20433;-83
2023/04/27 10:36:37;;;;;;;3.33;3.07;;;13.10;80.50;;;;;;5001255;28;20728;-83
2023/04/27 10:39:16;;;;;;;3.90;2.90;;;13.10;80.60;;;;;;5029661;28;20750;-83
2023/04/27 10:42:02;;;;;;;4.07;3.00;;;13.10;80.00;;;;;;5018296;28;20408;-83
2023/04/27 10:44:30;;;;;;;4.70;3.67;;;13.20;79.80;;;;;;5017615;28;20430;-82
2023/04/27 10:46:58;;;;;;;3.33;3.00;;;13.20;79.40;;;;;;5037954;28;20774;-83
2023/04/27 10:49:30;;;;;;;3.20;3.00;;;13.20;79.40;;;;;;5004213;28;20556;-83
2023/04/27 10:52:04;;;;;;;3.53;2.60;;;13.20;79.30;;;;;;5018318;28;20422;-83
2023/04/27 10:54:32;;;;;;;4.20;2.80;;;13.30;79.70;;;;;;5020903;28;20444;-83
2023/04/27 10:57:11;;;;;;;5.00;3.50;;;13.30;79.80;;;;;;4984829;28;20441;-83
2023/04/27 10:59:56;;;;;;;3.43;3.10;;;13.30;79.50;;;;;;5018501;28;20455;-83
2023/04/27 11:02:30;;;;;;;5.17;2.67;;;13.40;78.10;;;;;;5020427;28;20508;-83
2023/04/27 11:04:56;;;;;;;3.80;3.10;;;13.40;78.40;;;;;;5003942;28;20410;-83
2023/04/27 11:07:27;;;;;;;2.93;2.73;;;13.40;78.50;;;;;;5020099;28;20549;-85
2023/04/27 11:10:15;;;;;;;4.00;3.30;;;13.40;78.70;;;;;;5015843;28;20495;-84
2023/04/27 11:12:41;;;;;;;3.40;3.10;;;13.50;78.80;;;;;;5002372;28;20458;-83
2023/04/27 11:15:08;;;;;;;4.73;3.00;;;13.50;78.90;;;;;;5000558;28;20507;-83
2023/04/27 11:17:33;;;;;;;3.50;3.20;;;13.50;78.70;;;;;;4999962;28;20527;-84
2023/04/27 11:20:06;;;;;;;2.80;2.60;;;13.50;78.90;;;;;;4982958;28;20443;-85
2023/04/27 11:22:32;;;;;;;3.67;3.10;;;13.60;79.10;;;;;;5000356;28;20451;-84
2023/04/27 11:25:01;;;;;;;4.17;3.00;;;13.60;79.20;;;;;;5016932;28;20427;-84
2023/04/27 11:27:39;;;;;;;3.73;2.90;;;13.60;79.20;;;;;;5003521;28;20804;-84
2023/04/27 11:30:21;;;;;;;3.27;2.60;;;13.70;79.30;;;;;;5037154;28;20773;-84
2023/04/27 11:32:48;;;;;;;4.23;2.87;;;13.70;79.30;;;;;;5002160;28;20427;-84
2023/04/27 11:35:19;;;;;;;3.93;2.80;;;13.70;79.10;;;;;;5000186;28;20430;-85
2023/04/27 11:37:57;;;;;;;4.80;2.70;;;13.80;79.20;;;;;;5000129;28;20471;-85
2023/04/27 11:40:27;;;;;;;4.00;2.97;;;13.80;79.30;;;;;;5016370;28;20423;-83
2023/04/27 11:43:02;;;;;;;3.20;2.90;;;13.80;79.20;;;;;;4985625;28;21020;-83
2023/04/27 11:45:29;;;;;;;3.83;2.90;;;13.90;79.40;;;;;;5013094;28;20459;-83
2023/04/27 11:47:58;;;;;;;2.97;2.60;;;13.90;79.40;;;;;;5001479;28;20468;-83
2023/04/27 11:50:25;;;;;;;3.80;2.77;;;13.90;79.00;;;;;;4986356;28;20479;-83
2023/04/27 11:52:52;;;;;;;4.27;3.30;;;13.90;78.70;;;;;;5035499;28;20415;-83
2023/04/27 11:55:23;;;;;;;6.23;3.03;;;14.00;78.90;;;;;;4983320;28;20475;-83
2023/04/27 11:58:00;;;;;;;3.53;3.00;;;14.00;78.80;;;;;;5000209;28;20425;-83
2023/04/27 12:00:26;;;;;;;3.13;2.83;;;14.00;78.70;;;;;;4979908;28;20456;-83
2023/04/27 12:02:52;;;;;;;3.43;3.13;;;14.10;78.70;;;;;;4981628;28;20453;-83
2023/04/27 12:05:19;;;;;;;3.63;3.00;;;14.10;78.40;;;;;;5015696;28;20458;-83
2023/04/27 12:07:45;;;;;;;4.40;3.10;;;14.10;77.40;;;;;;4999732;28;20841;-83
2023/04/27 12:10:25;;;;;;;4.83;3.47;;;14.10;76.60;;;;;;4986827;28;20463;-83
2023/04/27 12:13:15;;;;;;;3.73;3.43;;;14.20;77.40;;;;;;5007466;28;20456;-83
2023/04/27 12:19:07;;;;;;;5.90;3.30;;;14.20;76.90;;;;;;4999025;28;20500;-80
2023/04/27 12:21:32;;;;;;;3.63;2.83;;;14.30;75.90;;;;;;5010109;28;20424;-84
2023/04/27 12:23:58;;;;;;;4.20;3.20;;;14.30;75.70;;;;;;4983264;28;20787;-83
2023/04/27 12:26:25;;;;;;;5.33;3.40;;;14.30;75.80;;;;;;4999418;28;20436;-85
2023/04/27 12:28:51;;;;;;;3.33;3.03;;;14.30;75.80;;;;;;4998759;28;20433;-83
2023/04/27 12:31:23;;;;;;;4.03;3.63;;;14.30;75.80;;;;;;5015223;28;21052;-84
2023/04/27 12:33:50;;;;;;;4.37;3.43;;;14.40;76.00;;;;;;4998993;28;20263;-85
2023/04/27 12:36:18;;;;;;;3.60;3.30;;;14.40;75.80;;;;;;5015220;28;20404;-83
2023/04/27 12:38:47;;;;;;;4.00;3.20;;;14.40;76.60;;;;;;4998609;28;20775;-83
2023/04/27 12:41:13;;;;;;;3.33;3.00;;;14.50;76.30;;;;;;5015430;28;20431;-84
2023/04/27 12:43:44;;;;;;;3.50;2.73;;;14.50;76.40;;;;;;4999174;28;20201;-82
2023/04/27 12:46:12;;;;;;;5.30;3.40;;;14.50;76.20;;;;;;5015833;28;20404;-84
2023/04/27 12:48:39;;;;;;;3.70;3.00;;;14.50;76.10;;;;;;4982542;28;20412;-84
2023/04/27 12:51:07;;;;;;;4.80;2.90;;;14.60;76.50;;;;;;4982286;28;20214;-86
2023/04/27 12:53:33;;;;;;;3.17;2.80;;;14.60;76.50;;;;;;4966550;28;20420;-85
2023/04/27 12:56:00;;;;;;;12.83;4.83;;;14.60;76.40;;;;;;5016687;28;20573;-92
2023/04/27 12:58:29;;;;;;;9.80;5.63;;;14.70;72.40;;;;;;4986541;28;20178;-94
2023/04/27 13:00:59;;;;;;;7.13;5.10;;;14.80;60.70;;;;;;5018704;28;20470;-93